Time;durP1;ratioP1;P1;durP2;ratioP2;P2;SDS_P1;SDS_P2;PMS_P1;PMS_P2;Temp;Humidity;BMP_temperature;BMP_pressure;BME280_temperature;BME280_humidity;BME280_pressure;Samples;Min_cycle;Max_cycle;Signal;HPM_P1;HPM_P2
2023/09/12 00:00:55;;;;;;;102.37;30.97;;;;;;;;;;5023607;28;20532;-69
2023/09/12 00:03:23;;;;;;;5.70;5.50;;;;;;;;;;5023086;28;20535;-70
2023/09/12 00:05:51;;;;;;;12.10;11.50;;;;;;;;;;5023404;28;20473;-70
2023/09/12 00:08:21;;;;;;;18.30;17.40;;;;;;;;;;5028284;28;20438;-70
2023/09/12 00:11:01;;;;;;;9.45;8.95;;;;;;;;;;5023993;28;20467;-69
2023/09/12 00:13:29;;;;;;;13.93;13.23;;;;;;;;;;5021671;28;20435;-69
2023/09/12 00:15:56;;;;;;;14.23;13.52;;;;;;;;;;5021991;28;22858;-69
2023/09/12 00:18:23;;;;;;;19.85;18.85;;;;;;;;;;5023618;28;20423;-69
2023/09/12 00:20:51;;;;;;;20.38;19.33;;;;;;;;;;5027423;28;20437;-69
2023/09/12 00:23:19;;;;;;;92.55;31.27;;;;;;;;;;5025763;28;20976;-69
2023/09/12 00:25:46;;;;;;;35.38;16.88;;;;;;;;;;5022929;28;20441;-70
2023/09/12 00:28:13;;;;;;;13.95;12.80;;;;;;;;;;5023188;28;20952;-70
2023/09/12 00:30:40;;;;;;;12.18;11.57;;;;;;;;;;5023283;28;20442;-69
2023/09/12 00:33:07;;;;;;;10.30;9.80;;;;;;;;;;5018208;28;21158;-70
2023/09/12 00:35:35;;;;;;;28.40;26.92;;;;;;;;;;5023777;28;20524;-70
2023/09/12 00:38:06;;;;;;;28.10;26.63;;;;;;;;;;5023607;28;20431;-70
2023/09/12 00:40:33;;;;;;;23.53;22.33;;;;;;;;;;5017473;28;20514;-70
2023/09/12 00:43:03;;;;;;;17.40;16.50;;;;;;;;;;5022318;28;20430;-70
2023/09/12 00:45:30;;;;;;;7.65;7.32;;;;;;;;;;5021067;28;20525;-70
2023/09/12 00:47:58;;;;;;;4.47;4.20;;;;;;;;;;5024646;28;20494;-70
2023/09/12 00:50:26;;;;;;;4.05;3.85;;;;;;;;;;5028558;28;20827;-70
2023/09/12 00:52:54;;;;;;;7.20;5.35;;;;;;;;;;5022515;28;20483;-70
2023/09/12 00:55:21;;;;;;;70.95;24.25;;;;;;;;;;5025469;28;20431;-70
2023/09/12 00:57:52;;;;;;;32.10;17.25;;;;;;;;;;5021775;28;20513;-70
2023/09/12 01:00:19;;;;;;;5.60;5.35;;;;;;;;;;5022778;28;20514;-70
2023/09/12 01:02:47;;;;;;;13.38;12.68;;;;;;;;;;5024853;28;20442;-69
2023/09/12 01:05:14;;;;;;;56.50;21.25;;;;;;;;;;5023606;28;20431;-70
2023/09/12 01:07:43;;;;;;;17.10;16.25;;;;;;;;;;5021393;28;20435;-69
2023/09/12 01:10:10;;;;;;;17.42;16.52;;;;;;;;;;5030199;28;20429;-70
2023/09/12 01:12:37;;;;;;;16.98;16.08;;;;;;;;;;5025219;28;20941;-70
2023/09/12 01:15:09;;;;;;;18.25;17.35;;;;;;;;;;5023900;28;20429;-70
2023/09/12 01:17:37;;;;;;;14.25;13.55;;;;;;;;;;5021839;28;20435;-70
2023/09/12 01:20:05;;;;;;;12.68;12.02;;;;;;;;;;5023741;28;20434;-70
2023/09/12 01:22:55;;;;;;;10.45;9.95;;;;;;;;;;5023672;28;20443;-70
2023/09/12 01:25:42;;;;;;;10.07;9.57;;;;;;;;;;5028812;28;20509;-70
2023/09/12 01:28:10;;;;;;;8.55;8.15;;;;;;;;;;5018123;28;20519;-70
2023/09/12 01:30:39;;;;;;;6.25;5.95;;;;;;;;;;5022170;28;20434;-69
2023/09/12 01:33:06;;;;;;;2.78;2.58;;;;;;;;;;5028566;28;20520;-69
2023/09/12 01:35:34;;;;;;;3.00;2.80;;;;;;;;;;5023196;28;20794;-70
2023/09/12 01:38:01;;;;;;;60.50;29.85;;;;;;;;;;5023837;28;20451;-69
2023/09/12 01:40:35;;;;;;;81.82;35.55;;;;;;;;;;5021022;28;20510;-70
2023/09/12 01:43:02;;;;;;;6.00;5.60;;;;;;;;;;5023503;28;20557;-70
2023/09/12 01:45:29;;;;;;;86.05;30.58;;;;;;;;;;5025809;28;20493;-70
2023/09/12 01:47:57;;;;;;;9.52;9.05;;;;;;;;;;5022147;28;21091;-70
2023/09/12 01:50:26;;;;;;;38.58;15.80;;;;;;;;;;5020529;28;20450;-70
2023/09/12 01:52:59;;;;;;;80.15;25.98;;;;;;;;;;5023633;28;20470;-70
2023/09/12 01:55:27;;;;;;;35.45;13.60;;;;;;;;;;5025747;28;20427;-70
2023/09/12 01:57:56;;;;;;;6.03;5.75;;;;;;;;;;5022220;28;20431;-70
2023/09/12 02:00:24;;;;;;;6.57;4.18;;;;;;;;;;5021286;28;20427;-71
2023/09/12 02:02:51;;;;;;;3.70;3.50;;;;;;;;;;5022726;28;20526;-70
2023/09/12 02:05:21;;;;;;;2.67;2.55;;;;;;;;;;5029714;28;20437;-71
2023/09/12 02:07:49;;;;;;;1.50;1.20;;;;;;;;;;5027676;28;20435;-70
2023/09/12 02:10:16;;;;;;;3.90;3.70;;;;;;;;;;5026486;28;20501;-70
2023/09/12 02:12:45;;;;;;;4.33;4.13;;;;;;;;;;5029714;28;20514;-70
2023/09/12 02:15:13;;;;;;;1.52;1.42;;;;;;;;;;5038243;28;20516;-70
2023/09/12 02:17:43;;;;;;;1.67;1.58;;;;;;;;;;5025787;28;20434;-70
2023/09/12 02:20:11;;;;;;;1.95;1.85;;;;;;;;;;5030866;28;20429;-70
2023/09/12 02:22:38;;;;;;;2.03;1.92;;;;;;;;;;5029370;28;20430;-70
2023/09/12 02:25:06;;;;;;;1.85;1.75;;;;;;;;;;5032795;28;20440;-70
2023/09/12 02:27:33;;;;;;;1.98;1.85;;;;;;;;;;5024033;28;20442;-70
2023/09/12 02:30:01;;;;;;;1.90;1.80;;;;;;;;;;5031326;28;20437;-70
2023/09/12 02:32:28;;;;;;;3.42;3.22;;;;;;;;;;5026586;28;21111;-71
2023/09/12 02:34:56;;;;;;;2.15;2.05;;;;;;;;;;5030280;28;21138;-70
2023/09/12 02:37:24;;;;;;;4.00;3.80;;;;;;;;;;5033383;28;20464;-71
2023/09/12 02:39:51;;;;;;;2.80;2.60;;;;;;;;;;5030039;28;21081;-70
2023/09/12 02:42:18;;;;;;;2.00;1.90;;;;;;;;;;5026176;28;20507;-70
2023/09/12 02:44:46;;;;;;;1.80;1.70;;;;;;;;;;5028677;28;20435;-71
2023/09/12 02:47:16;;;;;;;1.73;1.63;;;;;;;;;;5028909;28;22794;-70
2023/09/12 02:49:43;;;;;;;1.80;1.70;;;;;;;;;;5028549;28;20588;-71
2023/09/12 02:52:10;;;;;;;2.08;1.98;;;;;;;;;;5031762;28;20462;-70
2023/09/12 02:54:37;;;;;;;6.90;6.60;;;;;;;;;;5025016;28;20431;-70
2023/09/12 02:57:05;;;;;;;7.22;6.90;;;;;;;;;;5021259;28;20502;-71
2023/09/12 02:59:32;;;;;;;13.25;12.65;;;;;;;;;;5025817;28;20433;-70
2023/09/12 03:02:02;;;;;;;17.90;17.00;;;;;;;;;;5029326;28;20526;-71
2023/09/12 03:04:30;;;;;;;14.30;13.63;;;;;;;;;;5025647;28;20481;-72
2023/09/12 03:06:57;;;;;;;5.82;5.63;;;;;;;;;;5025195;28;20438;-71
2023/09/12 03:09:27;;;;;;;5.60;5.32;;;;;;;;;;5043905;28;20473;-71
2023/09/12 03:11:54;;;;;;;8.90;7.03;;;;;;;;;;5025344;28;20497;-71
2023/09/12 03:14:23;;;;;;;5.70;5.47;;;;;;;;;;5027603;28;20430;-71
2023/09/12 03:16:50;;;;;;;12.60;12.00;;;;;;;;;;5022589;28;20437;-70
2023/09/12 03:19:18;;;;;;;25.23;23.92;;;;;;;;;;5023635;28;20789;-69
2023/09/12 03:21:45;;;;;;;26.27;24.97;;;;;;;;;;5024468;28;20470;-70
2023/09/12 03:24:12;;;;;;;23.30;22.13;;;;;;;;;;5023644;28;20439;-70
2023/09/12 03:26:39;;;;;;;11.50;10.90;;;;;;;;;;5022260;28;20431;-70
2023/09/12 03:29:06;;;;;;;12.00;11.40;;;;;;;;;;5024778;28;20525;-70
2023/09/12 03:31:35;;;;;;;30.15;28.55;;;;;;;;;;5013123;28;20437;-70
2023/09/12 03:34:06;;;;;;;37.07;35.17;;;;;;;;;;5024669;28;21039;-70
2023/09/12 03:36:36;;;;;;;31.57;29.87;;;;;;;;;;5026447;28;20473;-70
2023/09/12 03:39:05;;;;;;;49.22;46.63;;;;;;;;;;5019998;28;20438;-70
2023/09/12 03:41:34;;;;;;;51.33;48.63;;;;;;;;;;5022649;28;20531;-71
2023/09/12 03:44:02;;;;;;;50.50;47.80;;;;;;;;;;5021275;28;20461;-70
2023/09/12 03:46:29;;;;;;;51.97;49.17;;;;;;;;;;5020792;28;20453;-70
2023/09/12 03:48:56;;;;;;;56.65;53.65;;;;;;;;;;5025256;28;20919;-71
2023/09/12 03:51:23;;;;;;;55.70;52.75;;;;;;;;;;5023081;28;21003;-70
2023/09/12 03:53:51;;;;;;;56.90;53.90;;;;;;;;;;5022933;28;20443;-70
2023/09/12 03:56:19;;;;;;;27.98;26.52;;;;;;;;;;5024848;28;20427;-71
2023/09/12 03:58:47;;;;;;;44.97;42.58;;;;;;;;;;5018325;28;20771;-70
2023/09/12 04:01:15;;;;;;;49.00;46.38;;;;;;;;;;5022626;28;20516;-71
2023/09/12 04:03:42;;;;;;;43.80;41.45;;;;;;;;;;5019022;28;20438;-71
2023/09/12 04:06:09;;;;;;;43.20;40.90;;;;;;;;;;5023077;28;20443;-71
2023/09/12 04:08:37;;;;;;;48.37;45.80;;;;;;;;;;5023708;28;20487;-70
2023/09/12 04:11:07;;;;;;;50.15;47.45;;;;;;;;;;5022239;28;21095;-70
2023/09/12 04:13:34;;;;;;;41.67;39.38;;;;;;;;;;5021921;28;20427;-71
2023/09/12 04:16:01;;;;;;;50.67;47.97;;;;;;;;;;5030205;28;20513;-71
2023/09/12 04:18:31;;;;;;;76.78;72.75;;;;;;;;;;5023369;28;20526;-71
2023/09/12 04:20:59;;;;;;;69.75;66.03;;;;;;;;;;5032247;28;20517;-71
2023/09/12 04:23:26;;;;;;;72.43;68.63;;;;;;;;;;5028058;28;20439;-71
2023/09/12 04:25:53;;;;;;;71.38;67.57;;;;;;;;;;5030888;28;21543;-71
2023/09/12 04:28:20;;;;;;;75.18;71.18;;;;;;;;;;5032319;28;20898;-70
2023/09/12 04:30:47;;;;;;;73.88;70.05;;;;;;;;;;5031222;28;20516;-70
2023/09/12 04:33:15;;;;;;;70.10;66.40;;;;;;;;;;5023190;28;20442;-70
2023/09/12 04:35:42;;;;;;;85.87;81.47;;;;;;;;;;5030118;28;20761;-70
2023/09/12 04:38:09;;;;;;;79.40;75.28;;;;;;;;;;5025085;28;20517;-71
2023/09/12 04:40:36;;;;;;;81.28;77.05;;;;;;;;;;5023981;28;21046;-72
2023/09/12 04:43:03;;;;;;;89.60;85.00;;;;;;;;;;5022527;28;20897;-72
2023/09/12 04:45:33;;;;;;;92.50;87.72;;;;;;;;;;5024781;28;20865;-71
2023/09/12 04:48:00;;;;;;;90.68;85.93;;;;;;;;;;5023739;28;20486;-70
2023/09/12 04:50:27;;;;;;;84.07;79.70;;;;;;;;;;5025189;28;20505;-71
2023/09/12 04:52:54;;;;;;;90.37;85.67;;;;;;;;;;5023549;28;21025;-71
2023/09/12 04:55:21;;;;;;;85.47;81.05;;;;;;;;;;5025143;28;21052;-71
2023/09/12 04:57:51;;;;;;;102.55;97.35;;;;;;;;;;5025131;28;20955;-72
2023/09/12 05:00:19;;;;;;;104.30;99.00;;;;;;;;;;5025667;28;20515;-71
2023/09/12 05:02:46;;;;;;;84.30;79.93;;;;;;;;;;5022292;28;20482;-70
2023/09/12 05:05:13;;;;;;;70.55;66.82;;;;;;;;;;5022598;28;20433;-71
2023/09/12 05:07:40;;;;;;;94.00;89.15;;;;;;;;;;5014369;28;20448;-70
2023/09/12 05:10:11;;;;;;;100.43;95.32;;;;;;;;;;5024696;28;20439;-71
2023/09/12 05:12:41;;;;;;;110.00;104.40;;;;;;;;;;5019626;28;20898;-71
2023/09/12 05:15:08;;;;;;;108.50;102.97;;;;;;;;;;5041243;28;20971;-71
2023/09/12 05:17:35;;;;;;;105.28;99.93;;;;;;;;;;5028007;28;20493;-70
2023/09/12 05:20:04;;;;;;;104.33;99.03;;;;;;;;;;5018082;28;20494;-70
2023/09/12 05:22:34;;;;;;;106.70;101.30;;;;;;;;;;5023356;28;20435;-70
2023/09/12 05:25:01;;;;;;;108.93;103.38;;;;;;;;;;5020417;28;20508;-70
2023/09/12 05:27:28;;;;;;;120.65;114.60;;;;;;;;;;5021527;28;20790;-70
2023/09/12 05:29:55;;;;;;;116.33;110.50;;;;;;;;;;5021850;28;20454;-70
2023/09/12 05:32:22;;;;;;;110.60;105.00;;;;;;;;;;5024508;28;20917;-70
2023/09/12 05:34:50;;;;;;;110.18;104.57;;;;;;;;;;5020072;28;20525;-70
2023/09/12 05:37:20;;;;;;;105.93;100.55;;;;;;;;;;5023568;28;20840;-70
2023/09/12 05:39:47;;;;;;;95.80;90.90;;;;;;;;;;5027507;28;20436;-70
2023/09/12 05:42:20;;;;;;;104.43;99.13;;;;;;;;;;5022998;28;20910;-70
2023/09/12 05:44:53;;;;;;;81.03;76.82;;;;;;;;;;5033341;28;20427;-70
2023/09/12 05:47:20;;;;;;;76.13;72.15;;;;;;;;;;5023173;28;20452;-70
2023/09/12 05:49:47;;;;;;;74.53;70.63;;;;;;;;;;5024320;28;20438;-70
2023/09/12 05:52:15;;;;;;;75.87;71.87;;;;;;;;;;5024925;28;20569;-70
2023/09/12 05:54:42;;;;;;;84.22;79.82;;;;;;;;;;5027091;28;20435;-70
2023/09/12 05:57:10;;;;;;;81.07;76.88;;;;;;;;;;5024952;28;20505;-70
2023/09/12 05:59:38;;;;;;;90.15;85.45;;;;;;;;;;5055226;28;21292;-70
2023/09/12 06:02:09;;;;;;;82.30;78.03;;;;;;;;;;5022692;28;20462;-71
2023/09/12 06:04:36;;;;;;;88.85;84.28;;;;;;;;;;5022936;28;20510;-71
2023/09/12 06:07:04;;;;;;;88.55;83.97;;;;;;;;;;5026868;28;20442;-70
2023/09/12 06:09:31;;;;;;;82.93;78.63;;;;;;;;;;5022041;28;20446;-69
2023/09/12 06:11:58;;;;;;;79.00;74.90;;;;;;;;;;5024835;28;20435;-70
2023/09/12 06:14:25;;;;;;;78.75;74.63;;;;;;;;;;5026407;28;20435;-70
2023/09/12 06:16:55;;;;;;;72.15;68.40;;;;;;;;;;5026825;28;20513;-70
2023/09/12 06:19:22;;;;;;;73.50;69.60;;;;;;;;;;5040871;28;20521;-70
2023/09/12 06:21:50;;;;;;;76.17;72.27;;;;;;;;;;5026989;28;20442;-70
2023/09/12 06:24:18;;;;;;;45.93;43.53;;;;;;;;;;5028597;28;20929;-70
2023/09/12 06:26:45;;;;;;;43.72;41.40;;;;;;;;;;5025822;28;20438;-70
2023/09/12 06:29:13;;;;;;;65.53;62.10;;;;;;;;;;5026919;28;20885;-70
2023/09/12 06:31:43;;;;;;;70.53;66.83;;;;;;;;;;5023936;28;20526;-70
2023/09/12 06:34:11;;;;;;;63.00;59.73;;;;;;;;;;5031343;28;20517;-70
2023/09/12 06:36:41;;;;;;;130.80;43.00;;;;;;;;;;5026789;28;20958;-70
2023/09/12 06:39:08;;;;;;;86.78;33.90;;;;;;;;;;5027221;28;20446;-70
2023/09/12 06:41:35;;;;;;;120.82;40.47;;;;;;;;;;5022503;28;20439;-70
2023/09/12 06:44:05;;;;;;;75.95;31.02;;;;;;;;;;5028701;28;20434;-71
2023/09/12 06:46:35;;;;;;;138.87;43.77;;;;;;;;;;5026794;28;20594;-71
2023/09/12 06:49:03;;;;;;;74.90;30.13;;;;;;;;;;5026402;28;20459;-70
2023/09/12 06:51:30;;;;;;;69.35;30.27;;;;;;;;;;5023270;28;20463;-70
2023/09/12 06:54:03;;;;;;;66.13;28.63;;;;;;;;;;5021497;28;20507;-70
2023/09/12 06:56:30;;;;;;;80.00;30.98;;;;;;;;;;5024249;28;20999;-71
2023/09/12 06:58:59;;;;;;;77.05;31.55;;;;;;;;;;5021203;28;20518;-70
2023/09/12 07:01:28;;;;;;;107.78;36.72;;;;;;;;;;5020081;28;20419;-71
2023/09/12 07:03:56;;;;;;;62.53;28.15;;;;;;;;;;5026923;28;20439;-69
2023/09/12 07:06:24;;;;;;;15.73;14.85;;;;;;;;;;5026736;28;20461;-69
2023/09/12 07:08:51;;;;;;;119.97;39.20;;;;;;;;;;5024437;28;20528;-70
2023/09/12 07:11:19;;;;;;;111.70;36.35;;;;;;;;;;5031590;28;20498;-70
2023/09/12 07:13:49;;;;;;;133.23;42.03;;;;;;;;;;5031237;28;20556;-70
2023/09/12 07:16:20;;;;;;;110.40;37.03;;;;;;;;;;5030551;28;20429;-69
2023/09/12 07:18:49;;;;;;;105.47;36.10;;;;;;;;;;5025143;28;20449;-69
2023/09/12 07:21:16;;;;;;;77.10;31.92;;;;;;;;;;5023947;28;20438;-70
2023/09/12 07:23:44;;;;;;;93.65;34.40;;;;;;;;;;5023972;28;20512;-70
2023/09/12 07:26:15;;;;;;;91.37;33.40;;;;;;;;;;5021808;28;20442;-68
2023/09/12 07:28:42;;;;;;;89.53;34.90;;;;;;;;;;5022929;28;20791;-69
2023/09/12 07:31:10;;;;;;;108.80;37.50;;;;;;;;;;5024024;28;20476;-69
2023/09/12 07:33:37;;;;;;;95.20;33.57;;;;;;;;;;5024728;28;20443;-69
2023/09/12 07:36:05;;;;;;;102.95;34.63;;;;;;;;;;5023044;28;20488;-69
2023/09/12 07:38:32;;;;;;;131.70;39.45;;;;;;;;;;5024089;28;20513;-69
2023/09/12 07:41:00;;;;;;;113.18;37.08;;;;;;;;;;5024959;28;20436;-70
2023/09/12 07:43:27;;;;;;;120.60;36.35;;;;;;;;;;5024099;28;21114;-69
2023/09/12 07:45:58;;;;;;;89.43;32.78;;;;;;;;;;5026707;28;20432;-70
2023/09/12 07:48:25;;;;;;;110.30;37.45;;;;;;;;;;5019897;28;20955;-70
2023/09/12 07:50:53;;;;;;;80.03;31.92;;;;;;;;;;5021489;28;20430;-70
2023/09/12 07:53:20;;;;;;;98.45;34.20;;;;;;;;;;5024991;28;20475;-69
2023/09/12 07:55:48;;;;;;;67.43;29.60;;;;;;;;;;5023121;28;21039;-69
2023/09/12 07:58:18;;;;;;;80.53;31.55;;;;;;;;;;5024336;28;20434;-69
2023/09/12 08:00:46;;;;;;;61.78;28.38;;;;;;;;;;5021837;28;20534;-69
2023/09/12 08:03:14;;;;;;;88.63;32.83;;;;;;;;;;5040287;28;20605;-69
2023/09/12 08:05:44;;;;;;;73.75;30.70;;;;;;;;;;5027255;28;20437;-69
2023/09/12 08:08:13;;;;;;;76.43;30.85;;;;;;;;;;5029245;28;20910;-69
2023/09/12 08:10:40;;;;;;;89.78;32.67;;;;;;;;;;5026701;28;21158;-71
2023/09/12 08:13:07;;;;;;;102.70;34.80;;;;;;;;;;5023322;28;20434;-69
2023/09/12 08:15:34;;;;;;;134.40;40.53;;;;;;;;;;5027396;28;20491;-70
2023/09/12 08:18:01;;;;;;;111.57;36.65;;;;;;;;;;5022004;28;20438;-69
2023/09/12 08:20:28;;;;;;;106.97;35.25;;;;;;;;;;5026925;28;20429;-69
2023/09/12 08:22:58;;;;;;;86.47;32.33;;;;;;;;;;5026081;28;20422;-70
2023/09/12 08:25:25;;;;;;;88.70;32.80;;;;;;;;;;5022488;28;20635;-70
2023/09/12 08:27:52;;;;;;;100.47;33.88;;;;;;;;;;5022907;28;20438;-69
2023/09/12 08:30:19;;;;;;;88.80;32.97;;;;;;;;;;5016118;28;20438;-69
2023/09/12 08:32:49;;;;;;;100.45;33.80;;;;;;;;;;5022754;28;20439;-68
2023/09/12 08:35:17;;;;;;;138.73;38.53;;;;;;;;;;5025525;28;20435;-69
2023/09/12 08:37:44;;;;;;;82.40;31.88;;;;;;;;;;5024421;28;23009;-69
2023/09/12 08:40:16;;;;;;;67.00;29.63;;;;;;;;;;5027554;28;20492;-69
2023/09/12 08:42:44;;;;;;;78.22;31.35;;;;;;;;;;5027011;28;20435;-70
2023/09/12 08:45:13;;;;;;;59.87;32.50;;;;;;;;;;5018887;28;20442;-69
2023/09/12 08:47:40;;;;;;;;;;;;;;;;;;5020185;28;20790;-68
2023/09/12 08:50:07;;;;;;;;;;;;;;;;;;4962030;28;52432;-68
2023/09/12 08:52:34;;;;;;;57.95;28.80;;;;;;;;;;5022707;28;20349;-69
2023/09/12 08:55:04;;;;;;;80.70;31.93;;;;;;;;;;5023362;28;20436;-69
2023/09/12 08:57:33;;;;;;;113.43;35.92;;;;;;;;;;5022324;28;20467;-69
2023/09/12 09:00:06;;;;;;;118.68;36.70;;;;;;;;;;5022693;28;20462;-69
2023/09/12 09:02:34;;;;;;;127.15;38.00;;;;;;;;;;5024950;28;20446;-69
2023/09/12 09:05:04;;;;;;;128.85;38.63;;;;;;;;;;5029006;28;20426;-69
2023/09/12 09:07:34;;;;;;;122.82;37.42;;;;;;;;;;5020202;28;21093;-70
2023/09/12 09:10:06;;;;;;;128.10;37.47;;;;;;;;;;5021169;28;20429;-70
2023/09/12 09:12:33;;;;;;;118.25;37.03;;;;;;;;;;5020858;28;20426;-69
2023/09/12 09:15:21;;;;;;;87.53;34.03;;;;;;;;;;5021397;28;20905;-68
2023/09/12 09:17:52;;;;;;;106.85;35.92;;;;;;;;;;5024700;28;20427;-70
2023/09/12 09:20:23;;;;;;;113.75;38.50;;;;;;;;;;5029981;28;20436;-69
2023/09/12 09:22:57;;;;;;;131.93;40.03;;;;;;;;;;5029279;28;20516;-70
2023/09/12 09:25:27;;;;;;;134.30;39.03;;;;;;;;;;5028461;28;20499;-69
2023/09/12 09:27:54;;;;;;;120.00;37.88;;;;;;;;;;5029746;28;20522;-71
2023/09/12 09:30:41;;;;;;;139.30;39.65;;;;;;;;;;5028499;28;20434;-69
2023/09/12 09:33:12;;;;;;;134.18;38.75;;;;;;;;;;5029115;28;20430;-68
2023/09/12 09:35:41;;;;;;;136.18;39.70;;;;;;;;;;5023996;28;21036;-70
2023/09/12 09:38:08;;;;;;;147.50;40.92;;;;;;;;;;5030767;28;20785;-70
2023/09/12 09:40:36;;;;;;;168.57;43.70;;;;;;;;;;5029730;28;20452;-69
2023/09/12 09:43:03;;;;;;;160.27;43.88;;;;;;;;;;5027383;28;20508;-70
2023/09/12 09:45:34;;;;;;;132.57;38.15;;;;;;;;;;5038056;28;20473;-69
2023/09/12 09:48:07;;;;;;;136.18;39.08;;;;;;;;;;5024642;28;20442;-71
2023/09/12 09:50:38;;;;;;;171.63;44.65;;;;;;;;;;5032253;28;20550;-70
2023/09/12 09:53:08;;;;;;;12.35;11.73;;;;;;;;;;5024724;28;20510;-70
2023/09/12 09:55:35;;;;;;;161.90;41.65;;;;;;;;;;5025752;28;20464;-70
2023/09/12 09:58:03;;;;;;;153.03;40.77;;;;;;;;;;5026463;28;20557;-69
2023/09/12 10:00:33;;;;;;;173.07;44.15;;;;;;;;;;5024396;28;20427;-69
2023/09/12 10:03:09;;;;;;;11.80;11.20;;;;;;;;;;5024331;28;20532;-69
2023/09/12 10:05:37;;;;;;;13.50;12.80;;;;;;;;;;5025397;28;20939;-69
2023/09/12 10:08:09;;;;;;;36.60;34.70;;;;;;;;;;5024617;28;20434;-70
2023/09/12 10:10:38;;;;;;;33.33;31.52;;;;;;;;;;5025930;28;20836;-69
2023/09/12 10:13:09;;;;;;;20.80;19.70;;;;;;;;;;5026162;28;20554;-69
2023/09/12 10:15:37;;;;;;;12.03;11.33;;;;;;;;;;5027707;28;20453;-69
2023/09/12 10:18:09;;;;;;;98.28;28.45;;;;;;;;;;5023338;28;20442;-69
2023/09/12 10:20:49;;;;;;;15.50;14.70;;;;;;;;;;5021281;28;20441;-69
2023/09/12 10:23:36;;;;;;;155.85;41.83;;;;;;;;;;5022241;28;20471;-72
2023/09/12 10:26:03;;;;;;;153.88;38.83;;;;;;;;;;5022469;28;20441;-65
2023/09/12 10:28:31;;;;;;;156.65;41.45;;;;;;;;;;5024386;28;20431;-64
2023/09/12 10:30:59;;;;;;;135.60;38.63;;;;;;;;;;5026083;28;20427;-66
2023/09/12 10:33:31;;;;;;;12.95;12.23;;;;;;;;;;5019606;28;20470;-63
2023/09/12 10:35:58;;;;;;;125.88;37.45;;;;;;;;;;5036011;28;20968;-65
2023/09/12 10:38:29;;;;;;;166.27;41.38;;;;;;;;;;5025352;28;20437;-64
2023/09/12 10:40:57;;;;;;;13.43;12.73;;;;;;;;;;5027372;28;20525;-65
2023/09/12 10:43:26;;;;;;;16.75;15.85;;;;;;;;;;5021081;28;20525;-65
2023/09/12 10:45:54;;;;;;;63.30;21.67;;;;;;;;;;5025655;28;20430;-64
2023/09/12 10:48:21;;;;;;;141.25;39.33;;;;;;;;;;5021878;28;20892;-65
2023/09/12 10:50:48;;;;;;;131.60;38.78;;;;;;;;;;5028591;28;20430;-64
2023/09/12 10:53:23;;;;;;;84.32;33.25;;;;;;;;;;5022286;28;20500;-64
2023/09/12 10:56:00;;;;;;;137.00;38.38;;;;;;;;;;5036802;28;20526;-64
2023/09/12 10:58:28;;;;;;;140.40;41.03;;;;;;;;;;5018026;28;20507;-65
2023/09/12 11:01:14;;;;;;;165.55;43.05;;;;;;;;;;5020231;28;20932;-70
2023/09/12 11:03:49;;;;;;;10.70;10.10;;;;;;;;;;5024394;28;20434;-70
2023/09/12 11:06:22;;;;;;;12.65;11.95;;;;;;;;;;5021985;28;20437;-69
2023/09/12 11:09:09;;;;;;;14.88;14.07;;;;;;;;;;5020610;28;20443;-69
2023/09/12 11:11:36;;;;;;;85.82;29.55;;;;;;;;;;5018938;28;20435;-62
2023/09/12 11:14:04;;;;;;;101.72;33.30;;;;;;;;;;5020831;28;20489;-70
2023/09/12 11:16:31;;;;;;;154.70;43.08;;;;;;;;;;5028065;28;20457;-72
2023/09/12 11:19:18;;;;;;;148.27;41.70;;;;;;;;;;5022989;28;20438;-72
2023/09/12 11:21:46;;;;;;;155.17;43.60;;;;;;;;;;5015348;28;20431;-72
2023/09/12 11:24:14;;;;;;;161.88;44.20;;;;;;;;;;5025225;28;20529;-73
2023/09/12 11:26:54;;;;;;;142.35;41.50;;;;;;;;;;5021638;28;20450;-70
2023/09/12 11:29:22;;;;;;;155.02;43.50;;;;;;;;;;5034344;28;20474;-72
2023/09/12 11:31:57;;;;;;;163.25;44.55;;;;;;;;;;5021137;28;20496;-71
2023/09/12 11:34:27;;;;;;;140.60;40.27;;;;;;;;;;5024079;28;20496;-71
2023/09/12 11:36:56;;;;;;;121.13;37.40;;;;;;;;;;5022778;28;20581;-72
2023/09/12 11:39:24;;;;;;;93.95;33.72;;;;;;;;;;5024546;28;20993;-74
2023/09/12 11:41:53;;;;;;;146.50;41.17;;;;;;;;;;5050613;28;21383;-72
2023/09/12 11:44:21;;;;;;;170.15;44.25;;;;;;;;;;5025015;28;20564;-72
2023/09/12 11:46:52;;;;;;;93.18;27.95;;;;;;;;;;5022409;28;20447;-72
2023/09/12 11:49:19;;;;;;;13.15;12.45;;;;;;;;;;5021438;28;20478;-71
2023/09/12 11:51:48;;;;;;;14.10;13.40;;;;;;;;;;5032123;28;20438;-71
2023/09/12 11:54:16;;;;;;;12.55;11.85;;;;;;;;;;5017866;28;20437;-72
2023/09/12 11:56:43;;;;;;;15.20;14.40;;;;;;;;;;5019766;28;20434;-71
2023/09/12 11:59:10;;;;;;;14.77;13.98;;;;;;;;;;5019009;28;20479;-73
2023/09/12 12:01:43;;;;;;;18.23;17.23;;;;;;;;;;5017509;28;20431;-73
2023/09/12 12:04:10;;;;;;;13.30;12.60;;;;;;;;;;5033382;28;20434;-71
2023/09/12 12:06:38;;;;;;;15.05;14.25;;;;;;;;;;5020864;28;20431;-71
2023/09/12 12:09:05;;;;;;;15.43;14.63;;;;;;;;;;5021396;28;20430;-71
2023/09/12 12:11:32;;;;;;;16.20;15.35;;;;;;;;;;5017202;28;20443;-70
2023/09/12 12:14:09;;;;;;;13.35;12.65;;;;;;;;;;5025126;28;20436;-71
2023/09/12 12:16:36;;;;;;;15.95;15.13;;;;;;;;;;5019497;28;20514;-72
2023/09/12 12:19:04;;;;;;;12.17;11.57;;;;;;;;;;5023285;28;20439;-71
2023/09/12 12:21:31;;;;;;;13.02;12.38;;;;;;;;;;5022878;28;20443;-72
2023/09/12 12:24:00;;;;;;;13.25;12.55;;;;;;;;;;5022360;28;20543;-71
2023/09/12 12:26:28;;;;;;;15.25;14.45;;;;;;;;;;5033270;28;20435;-72
2023/09/12 12:28:55;;;;;;;17.27;16.38;;;;;;;;;;5042713;28;20427;-72
2023/09/12 12:31:24;;;;;;;21.27;20.13;;;;;;;;;;5027233;28;20973;-72
2023/09/12 12:33:54;;;;;;;21.35;20.25;;;;;;;;;;5023230;28;20431;-72
2023/09/12 12:36:42;;;;;;;28.23;26.75;;;;;;;;;;5027949;28;20425;-72
2023/09/12 12:39:23;;;;;;;25.75;24.35;;;;;;;;;;5023034;28;20469;-72
2023/09/12 12:41:53;;;;;;;22.70;21.50;;;;;;;;;;5030341;28;20439;-72
2023/09/12 12:44:20;;;;;;;30.70;29.13;;;;;;;;;;5041197;28;20441;-72
2023/09/12 12:46:49;;;;;;;67.00;63.43;;;;;;;;;;5024209;28;20434;-71
2023/09/12 12:49:16;;;;;;;1225.60;999.90;;;;;;;;;;5026010;28;20522;-72
2023/09/12 12:51:44;;;;;;;1233.68;999.90;;;;;;;;;;5021886;28;20474;-73
2023/09/12 12:54:11;;;;;;;1278.20;999.90;;;;;;;;;;5044020;28;20928;-71
2023/09/12 12:56:38;;;;;;;1297.60;999.90;;;;;;;;;;5022247;28;21894;-71
2023/09/12 12:59:08;;;;;;;1265.87;999.90;;;;;;;;;;5021648;28;20434;-72
2023/09/12 13:01:36;;;;;;;897.63;814.90;;;;;;;;;;5048139;28;20962;-72
2023/09/12 13:04:05;;;;;;;1209.95;999.90;;;;;;;;;;5018794;28;20862;-72
2023/09/12 13:06:35;;;;;;;1258.10;999.90;;;;;;;;;;5021270;28;21089;-71
2023/09/12 13:09:05;;;;;;;1240.55;999.90;;;;;;;;;;5032502;28;20501;-72
2023/09/12 13:11:36;;;;;;;1230.77;999.90;;;;;;;;;;5024460;28;20443;-72
2023/09/12 13:14:09;;;;;;;1258.32;999.90;;;;;;;;;;5027844;28;20442;-72
2023/09/12 13:16:41;;;;;;;1193.85;999.90;;;;;;;;;;5032452;28;20446;-72
2023/09/12 13:19:11;;;;;;;845.80;773.47;;;;;;;;;;5035821;28;20430;-72
2023/09/12 13:21:38;;;;;;;392.85;359.17;;;;;;;;;;5027287;28;20438;-75
2023/09/12 13:24:06;;;;;;;1162.40;999.90;;;;;;;;;;5026235;28;20434;-73
2023/09/12 13:26:33;;;;;;;636.17;580.13;;;;;;;;;;5023225;28;20434;-72
2023/09/12 13:29:00;;;;;;;477.33;434.20;;;;;;;;;;5026808;28;20440;-72
2023/09/12 13:31:28;;;;;;;206.67;190.40;;;;;;;;;;5023270;28;20514;-72
2023/09/12 13:33:55;;;;;;;105.28;96.85;;;;;;;;;;5024526;28;20461;-72
2023/09/12 13:36:23;;;;;;;947.22;864.28;;;;;;;;;;5020664;28;20551;-72
2023/09/12 13:38:51;;;;;;;1163.10;999.90;;;;;;;;;;5023057;28;20465;-72
2023/09/12 13:41:18;;;;;;;360.15;328.48;;;;;;;;;;5041940;28;20493;-73
2023/09/12 13:43:46;;;;;;;1221.60;999.90;;;;;;;;;;5041321;28;20427;-73
2023/09/12 13:46:13;;;;;;;1014.38;929.83;;;;;;;;;;5025768;28;20464;-72
2023/09/12 13:48:41;;;;;;;1347.57;999.90;;;;;;;;;;5021069;28;20487;-72
2023/09/12 13:51:08;;;;;;;1366.83;999.90;;;;;;;;;;5023671;28;21095;-72
2023/09/12 13:53:35;;;;;;;1386.97;999.90;;;;;;;;;;5025612;28;20516;-72
2023/09/12 13:56:02;;;;;;;1288.63;999.90;;;;;;;;;;5024250;28;20964;-71
2023/09/12 13:58:30;;;;;;;495.75;449.88;;;;;;;;;;5038564;28;20430;-73
2023/09/12 14:01:11;;;;;;;1262.17;999.90;;;;;;;;;;5027647;28;20436;-73
2023/09/12 14:03:53;;;;;;;849.42;774.72;;;;;;;;;;5031969;28;20436;-73
2023/09/12 14:06:21;;;;;;;93.93;86.18;;;;;;;;;;5048182;28;20442;-72
2023/09/12 14:08:49;;;;;;;17.10;15.38;;;;;;;;;;5039854;28;20468;-73
2023/09/12 14:11:16;;;;;;;60.47;54.88;;;;;;;;;;5035594;28;20421;-73
2023/09/12 14:13:58;;;;;;;95.70;85.18;;;;;;;;;;5031919;28;20468;-72
2023/09/12 14:16:42;;;;;;;12.20;7.23;;;;;;;;;;5055160;28;20435;-72
2023/09/12 14:19:14;;;;;;;51.25;44.20;;;;;;;;;;5044697;28;20427;-73
2023/09/12 14:21:44;;;;;;;10.27;6.20;;;;;;;;;;5035023;28;20491;-72
2023/09/12 14:24:12;;;;;;;11.10;7.95;;;;;;;;;;5039830;28;20498;-74